This is the latest recevied weather packets stored in our database for station/object VK5ARG-5. If no packets are shown the sender has not sent any weather packets the latest 10 day(s).
| Time | Temp. | Humidity | Pressure | Rain* | Wind** | Luminosity | Snow |
|---|---|---|---|---|---|---|---|
| 1778243124 | 11.11° C | 99% | - | 0 mm | - | - | - |
| 1778237121 | 11.67° C | 99% | - | 0 mm | - | - | - |
| 1778235942 | 11.67° C | 99% | - | 0 mm | - | - | - |
| 1778235327 | 11.67° C | 99% | - | 0 mm | - | - | - |
| 1778234723 | 11.67° C | 99% | - | 0 mm | - | - | - |
| 1778230524 | 11.67° C | 98% | - | 0 mm | - | - | - |
| 1778228146 | 12.22° C | 97% | - | 0 mm | - | - | - |
| 1778225124 | 12.78° C | 94% | - | 0 mm | - | - | - |
| 1778224541 | 12.78° C | 95% | - | 0 mm | - | - | - |
| 1778223322 | 13.33° C | 95% | - | 0 mm | - | - | - |
| 1778222726 | 12.78° C | 98% | - | 0 mm | - | - | - |
| 1778220321 | 11.67° C | 98% | - | 0 mm | - | - | - |
| 1778219122 | 12.22° C | 97% | - | 0 mm | - | - | - |
| 1778214327 | 13.33° C | 89% | - | 0 mm | - | - | - |
| 1778213723 | 12.78° C | 91% | - | 0 mm | - | - | - |
| 1778211921 | 13.33° C | 86% | - | 0 mm | - | - | - |
| 1778211325 | 13.33° C | 84% | - | 0 mm | - | - | - |
| 1778201726 | 12.22° C | 83% | - | 0 mm | - | - | - |
| 1778200528 | 12.22° C | 86% | - | 0 mm | - | - | - |
| 1778199925 | 12.22° C | 85% | - | 0 mm | - | - | - |
| 1778196327 | 11.67° C | 84% | - | 0 mm | - | - | - |
| 1778195724 | 11.67° C | 83% | - | 0 mm | - | - | - |
| 1778193348 | 11.67° C | 83% | - | 0 mm | - | - | - |
| 1778189722 | 11.11° C | 86% | - | 0 mm | - | - | - |
| 1778184947 | 11.11° C | 90% | - | 0 mm | - | - | - |
* Rain latest hour (hover to see other rain measurements)
** Current wind speed in m/s (hover to see current wind gust speed)